Time;durP1;ratioP1;P1;durP2;ratioP2;P2;SDS_P1;SDS_P2;PMS_P1;PMS_P2;Temp;Humidity;BMP_temperature;BMP_pressure;BME280_temperature;BME280_humidity;BME280_pressure;Samples;Min_cycle;Max_cycle;Signal;HPM_P1;HPM_P2
2022/08/16 00:03:09;;;;;;;12.25;10.82;;;;;19.60;100155.00;;;;12744410;23;20259;-79
2022/08/16 00:08:14;;;;;;;13.23;11.38;;;;;19.60;100158.00;;;;12724764;23;20175;-79
2022/08/16 00:13:37;;;;;;;12.43;11.13;;;;;19.60;100153.00;;;;12704851;23;20295;-80
2022/08/16 00:18:43;;;;;;;13.75;11.30;;;;;19.50;100157.00;;;;12700780;23;20164;-80
2022/08/16 00:23:45;;;;;;;16.50;12.23;;;;;19.50;100162.00;;;;12652734;23;20664;-79
2022/08/16 00:28:48;;;;;;;13.73;12.30;;;;;19.50;100152.00;;;;12745694;23;20168;-80
2022/08/16 00:33:55;;;;;;;14.63;12.80;;;;;19.40;100148.00;;;;12700805;23;20183;-79
2022/08/16 00:38:57;;;;;;;15.80;13.40;;;;;19.40;100155.00;;;;12719839;23;20164;-79
2022/08/16 00:44:09;;;;;;;18.45;13.23;;;;;19.40;100148.00;;;;12745729;23;20168;-79
2022/08/16 00:49:13;;;;;;;13.75;12.35;;;;;19.40;100145.00;;;;12724442;23;20684;-79
2022/08/16 00:54:23;;;;;;;13.63;12.15;;;;;19.30;100146.00;;;;12674515;23;20211;-79
2022/08/16 00:59:30;;;;;;;12.80;11.50;;;;;19.20;100133.00;;;;12673842;23;20789;-78
2022/08/16 01:04:36;;;;;;;16.58;13.43;;;;;19.20;100134.00;;;;12674418;23;20233;-79
2022/08/16 01:09:38;;;;;;;13.45;12.02;;;;;19.10;100141.00;;;;12673845;23;20202;-79
2022/08/16 01:14:48;;;;;;;14.73;13.13;;;;;19.10;100146.00;;;;12698111;23;20237;-80
2022/08/16 01:19:57;;;;;;;17.50;13.18;;;;;19.00;100143.00;;;;12702510;23;20848;-78
2022/08/16 01:25:25;;;;;;;14.77;13.38;;;;;19.00;100153.00;;;;12700829;23;20683;-79
2022/08/16 01:30:43;;;;;;;15.13;13.43;;;;;19.00;100155.00;;;;12653914;23;20251;-79
2022/08/16 01:36:02;;;;;;;15.13;13.52;;;;;18.90;100163.00;;;;12721328;23;20183;-79
2022/08/16 01:41:22;;;;;;;20.40;13.77;;;;;18.90;100165.00;;;;12678393;23;20210;-79
2022/08/16 01:46:34;;;;;;;16.10;14.40;;;;;18.90;100160.00;;;;12699939;23;20188;-80
2022/08/16 01:51:58;;;;;;;14.25;12.85;;;;;18.80;100161.00;;;;12676697;23;20195;-80
2022/08/16 01:57:31;;;;;;;17.27;12.48;;;;;18.80;100170.00;;;;12827857;22;20255;-80
2022/08/16 02:02:37;;;;;;;13.40;11.25;;;;;18.70;100171.00;;;;12676907;23;20259;-79
2022/08/16 02:07:43;;;;;;;14.15;11.38;;;;;18.70;100161.00;;;;12748061;23;20160;-79
2022/08/16 02:12:49;;;;;;;14.68;10.65;;;;;18.70;100164.00;;;;12679300;23;20176;-79
2022/08/16 02:18:03;;;;;;;12.88;9.90;;;;;18.70;100160.00;;;;12677131;23;20229;-79
2022/08/16 02:23:09;;;;;;;14.45;9.40;;;;;18.70;100155.00;;;;12748094;23;20160;-80
2022/08/16 02:28:11;;;;;;;10.93;9.95;;;;;18.70;100156.00;;;;12678243;23;20233;-80
2022/08/16 02:33:20;;;;;;;13.10;10.50;;;;;18.70;100155.00;;;;12703333;23;20258;-79
2022/08/16 02:38:44;;;;;;;11.00;9.90;;;;;18.60;100163.00;;;;12702784;23;20167;-79
2022/08/16 02:43:47;;;;;;;11.30;10.20;;;;;18.60;100160.00;;;;12677014;23;20196;-79
2022/08/16 02:48:49;;;;;;;12.70;10.20;;;;;18.60;100157.00;;;;12701832;23;20207;-80
2022/08/16 02:53:53;;;;;;;12.52;10.82;;;;;18.60;100151.00;;;;12677516;23;20184;-80
2022/08/16 02:58:58;;;;;;;12.48;10.38;;;;;18.60;100148.00;;;;12698953;23;20213;-79
2022/08/16 03:04:03;;;;;;;13.73;12.05;;;;;18.60;100158.00;;;;12678802;23;20176;-80
2022/08/16 03:09:26;;;;;;;13.75;12.05;;;;;18.60;100145.00;;;;12678587;23;20541;-79
2022/08/16 03:14:30;;;;;;;15.18;11.32;;;;;18.60;100154.00;;;;12676579;23;20226;-80
2022/08/16 03:19:33;;;;;;;15.27;11.55;;;;;18.60;100157.00;;;;12653159;23;20173;-80
2022/08/16 03:24:58;;;;;;;12.32;11.00;;;;;18.50;100150.00;;;;12677366;23;20160;-79
2022/08/16 03:30:18;;;;;;;15.93;11.20;;;;;18.40;100159.00;;;;12676577;23;20178;-80
2022/08/16 03:35:29;;;;;;;13.48;12.15;;;;;18.40;100163.00;;;;12677619;23;20196;-79
2022/08/16 03:40:41;;;;;;;11.57;10.48;;;;;18.40;100164.00;;;;12656170;23;20607;-79
2022/08/16 03:45:44;;;;;;;13.27;11.98;;;;;18.30;100160.00;;;;12701446;23;20163;-79
2022/08/16 03:50:46;;;;;;;11.98;10.77;;;;;18.20;100162.00;;;;12680304;23;20258;-80
2022/08/16 03:56:03;;;;;;;15.98;11.25;;;;;18.20;100164.00;;;;12680377;23;20276;-79
2022/08/16 04:01:09;;;;;;;12.30;10.75;;;;;18.20;100167.00;;;;12678877;23;20277;-80
2022/08/16 04:06:14;;;;;;;12.40;10.98;;;;;18.20;100161.00;;;;12679928;23;20187;-79
2022/08/16 04:11:17;;;;;;;12.57;11.23;;;;;18.20;100161.00;;;;12679582;23;20182;-80
2022/08/16 04:16:21;;;;;;;14.05;12.65;;;;;18.10;100172.00;;;;12704065;23;20554;-79
2022/08/16 04:21:36;;;;;;;13.00;11.68;;;;;18.10;100165.00;;;;12679246;23;20171;-80
2022/08/16 04:26:52;;;;;;;17.65;11.82;;;;;18.10;100171.00;;;;12702503;23;20179;-81
2022/08/16 04:31:56;;;;;;;14.65;10.93;;;;;18.10;100166.00;;;;12699511;23;20900;-79
2022/08/16 04:37:06;;;;;;;13.93;11.55;;;;;18.10;100168.00;;;;12678739;23;20180;-79
2022/08/16 04:42:14;;;;;;;12.13;10.05;;;;;18.10;100175.00;;;;12677835;23;20179;-79
2022/08/16 04:47:16;;;;;;;10.95;9.88;;;;;18.10;100180.00;;;;12673856;23;20594;-80
2022/08/16 04:52:25;;;;;;;16.80;11.63;;;;;18.20;100189.00;;;;12674865;23;20496;-81
2022/08/16 04:57:37;;;;;;;12.25;11.05;;;;;18.40;100200.00;;;;12700689;23;20167;-80
2022/08/16 05:02:40;;;;;;;14.20;10.55;;;;;18.60;100209.00;;;;12698068;23;20160;-81
2022/08/16 05:08:00;;;;;;;15.93;11.50;;;;;18.80;100215.00;;;;12722552;23;20220;-80
2022/08/16 05:13:48;;;;;;;14.52;11.40;;;;;19.10;100220.00;;;;12716972;23;20210;-80
2022/08/16 05:18:58;;;;;;;14.15;11.60;;;;;19.40;100224.00;;;;12698770;23;20241;-80
2022/08/16 05:24:05;;;;;;;12.70;11.10;;;;;19.70;100217.00;;;;12701863;23;20186;-80
2022/08/16 05:29:09;;;;;;;11.70;10.50;;;;;20.00;100216.00;;;;12701025;23;20176;-80
2022/08/16 05:34:25;;;;;;;11.43;9.75;;;;;20.60;100217.00;;;;12742947;23;20191;-81
2022/08/16 05:39:28;;;;;;;11.38;10.05;;;;;20.80;100228.00;;;;12717562;23;20164;-81
2022/08/16 05:44:34;;;;;;;11.73;10.38;;;;;20.80;100225.00;;;;12741719;23;20164;-80
2022/08/16 05:49:38;;;;;;;12.65;10.00;;;;;21.00;100228.00;;;;12667927;23;20196;-80
2022/08/16 05:54:45;;;;;;;10.43;9.00;;;;;21.30;100228.00;;;;12699593;23;20669;-79
2022/08/16 06:00:00;;;;;;;13.02;10.52;;;;;21.60;100232.00;;;;12696628;23;20219;-79
2022/08/16 06:05:13;;;;;;;12.80;9.48;;;;;22.00;100237.00;;;;12743229;23;20184;-81
2022/08/16 06:10:18;;;;;;;11.88;8.48;;;;;21.90;100237.00;;;;12653463;23;20171;-80
2022/08/16 06:15:37;;;;;;;13.85;8.85;;;;;22.60;100237.00;;;;12696388;23;20361;-81
2022/08/16 06:20:42;;;;;;;9.88;7.95;;;;;23.30;100233.00;;;;12701555;23;20594;-81
2022/08/16 06:25:57;;;;;;;14.32;7.20;;;;;24.00;100237.00;;;;12682342;23;20210;-81
2022/08/16 06:31:05;;;;;;;9.93;7.85;;;;;24.60;100235.00;;;;12702047;23;20163;-81
2022/08/16 06:36:14;;;;;;;11.00;6.57;;;;;25.20;100243.00;;;;12680493;23;20188;-81
2022/08/16 06:41:24;;;;;;;9.93;7.30;;;;;25.50;100235.00;;;;12679848;23;20160;-81
2022/08/16 06:46:33;;;;;;;8.57;6.57;;;;;25.90;100233.00;;;;12706849;23;20211;-81
2022/08/16 06:51:43;;;;;;;12.07;6.93;;;;;26.20;100235.00;;;;12705338;23;20242;-81
2022/08/16 06:56:52;;;;;;;12.10;6.60;;;;;26.50;100241.00;;;;12706064;23;20215;-82
2022/08/16 07:01:58;;;;;;;6.15;4.95;;;;;26.70;100243.00;;;;12707481;23;20184;-81
2022/08/16 07:07:04;;;;;;;8.93;5.70;;;;;26.90;100237.00;;;;12707343;23;20186;-82
2022/08/16 07:12:07;;;;;;;10.15;5.45;;;;;27.10;100247.00;;;;12708180;23;20179;-81
2022/08/16 07:17:17;;;;;;;10.18;5.30;;;;;27.40;100254.00;;;;12708535;23;20183;-82
2022/08/16 07:22:26;;;;;;;6.93;4.72;;;;;27.40;100257.00;;;;12684547;23;20198;-82
2022/08/16 07:27:53;;;;;;;9.27;5.25;;;;;27.80;100263.00;;;;12686842;23;20226;-83
2022/08/16 07:32:59;;;;;;;6.25;4.57;;;;;28.00;100270.00;;;;12708315;23;20247;-82
2022/08/16 07:38:03;;;;;;;7.15;6.03;;;;;28.00;100273.00;;;;12720730;23;20187;-80
2022/08/16 07:43:13;;;;;;;6.93;5.55;;;;;28.40;100276.00;;;;12708915;23;20246;-80
2022/08/16 07:48:16;;;;;;;8.82;4.72;;;;;29.00;100282.00;;;;12706132;23;20204;-81
2022/08/16 07:53:30;;;;;;;9.32;5.90;;;;;29.00;100281.00;;;;12707895;23;20222;-81
2022/08/16 07:58:32;;;;;;;7.20;4.05;;;;;29.30;100283.00;;;;12753035;23;20266;-83
2022/08/16 08:03:43;;;;;;;6.07;3.90;;;;;29.60;100294.00;;;;12709460;23;20171;-80
2022/08/16 08:08:55;;;;;;;7.93;4.15;;;;;28.80;100295.00;;;;12707835;23;20163;-82
2022/08/16 08:14:04;;;;;;;5.50;4.00;;;;;29.80;100303.00;;;;12733126;23;20642;-80
2022/08/16 08:19:15;;;;;;;9.88;3.80;;;;;29.70;100293.00;;;;12709241;23;20171;-81
2022/08/16 08:24:23;;;;;;;5.72;3.53;;;;;29.70;100300.00;;;;12683716;23;20191;-81
2022/08/16 08:29:36;;;;;;;7.45;3.88;;;;;30.70;100304.00;;;;12686131;23;20168;-80
2022/08/16 08:34:47;;;;;;;8.98;3.80;;;;;31.20;100301.00;;;;12710203;23;20179;-81
2022/08/16 08:39:52;;;;;;;5.32;3.53;;;;;31.10;100297.00;;;;12662054;23;20195;-80
2022/08/16 08:44:57;;;;;;;5.85;3.35;;;;;31.40;100299.00;;;;12710108;23;20174;-80
2022/08/16 08:49:59;;;;;;;5.15;4.03;;;;;31.20;100309.00;;;;12683817;23;20638;-80
2022/08/16 08:55:08;;;;;;;4.85;3.55;;;;;31.70;100306.00;;;;12754852;23;20240;-81
2022/08/16 09:00:16;;;;;;;7.05;4.00;;;;;32.60;100324.00;;;;12711069;23;20176;-80
2022/08/16 09:05:26;;;;;;;3.80;3.30;;;;;33.10;100322.00;;;;12756024;23;20168;-81
2022/08/16 09:10:40;;;;;;;8.90;3.40;;;;;33.80;100318.00;;;;12709424;23;20194;-80
2022/08/16 09:15:43;;;;;;;11.57;3.47;;;;;34.40;100325.00;;;;12687013;23;20290;-80
2022/08/16 09:20:45;;;;;;;10.63;4.45;;;;;34.70;100323.00;;;;12729047;23;20156;-81
2022/08/16 09:26:02;;;;;;;9.63;3.95;;;;;35.40;100324.00;;;;12710144;23;20195;-81
2022/08/16 09:31:24;;;;;;;5.32;3.60;;;;;35.50;100326.00;;;;12691440;23;20227;-81
2022/08/16 09:36:28;;;;;;;7.10;3.30;;;;;35.30;100331.00;;;;12712385;23;20422;-81
2022/08/16 09:41:33;;;;;;;9.30;3.70;;;;;35.20;100336.00;;;;12715748;23;20176;-80
2022/08/16 09:46:35;;;;;;;7.90;3.33;;;;;35.80;100339.00;;;;12733770;23;20236;-80
2022/08/16 09:51:52;;;;;;;4.72;3.88;;;;;35.80;100349.00;;;;12692066;23;20172;-80
2022/08/16 09:56:54;;;;;;;5.32;3.75;;;;;35.90;100340.00;;;;12692927;23;20299;-80
2022/08/16 10:01:59;;;;;;;7.18;3.35;;;;;35.80;100346.00;;;;12760234;23;20171;-81
2022/08/16 10:07:23;;;;;;;6.90;3.28;;;;;35.70;100341.00;;;;12738802;23;20262;-82
2022/08/16 10:17:58;;;;;;;6.50;3.67;;;;;33.40;100345.00;;;;12713935;23;20176;-81
2022/08/16 10:23:05;;;;;;;7.95;3.60;;;;;32.60;100341.00;;;;12711642;23;20179;-81
2022/08/16 10:28:10;;;;;;;8.35;4.05;;;;;32.10;100341.00;;;;12687472;23;20571;-81
2022/08/16 10:33:32;;;;;;;7.57;3.67;;;;;31.90;100344.00;;;;12735889;23;20163;-81
2022/08/16 10:38:38;;;;;;;8.05;4.20;;;;;31.80;100341.00;;;;12714333;23;20232;-81
2022/08/16 10:43:42;;;;;;;8.95;4.53;;;;;31.60;100338.00;;;;12714614;23;20164;-81
2022/08/16 10:48:45;;;;;;;6.95;4.43;;;;;31.60;100343.00;;;;12712582;23;20254;-81
2022/08/16 10:53:48;;;;;;;8.52;4.35;;;;;32.70;100346.00;;;;12733882;23;20225;-80
2022/08/16 10:58:52;;;;;;;6.25;4.18;;;;;34.30;100337.00;;;;12714547;23;20176;-82
2022/08/16 11:03:54;;;;;;;7.38;4.82;;;;;35.20;100349.00;;;;12715141;23;20225;-82
2022/08/16 11:08:58;;;;;;;6.63;4.93;;;;;35.00;100356.00;;;;12690295;23;20176;-82
2022/08/16 11:14:20;;;;;;;7.50;4.43;;;;;34.70;100358.00;;;;12672322;23;20251;-82
2022/08/16 11:19:22;;;;;;;10.90;4.80;;;;;34.10;100368.00;;;;12717876;23;20202;-81
2022/08/16 11:24:25;;;;;;;6.80;4.30;;;;;35.30;100358.00;;;;12715468;23;20164;-81
2022/08/16 11:29:42;;;;;;;4.78;4.38;;;;;36.50;100358.00;;;;12689202;23;20163;-82
2022/08/16 11:34:44;;;;;;;6.38;4.07;;;;;37.50;100366.00;;;;12689556;23;20180;-82
2022/08/16 11:40:09;;;;;;;5.20;4.35;;;;;38.10;100357.00;;;;12714488;23;20176;-82
2022/08/16 11:45:13;;;;;;;5.53;4.05;;;;;38.50;100364.00;;;;12694180;23;20184;-82
2022/08/16 11:50:15;;;;;;;10.93;4.38;;;;;36.90;100373.00;;;;12715170;23;20219;-82
2022/08/16 11:55:18;;;;;;;5.80;4.20;;;;;36.30;100368.00;;;;12715673;23;20177;-82
2022/08/16 12:00:24;;;;;;;8.40;4.50;;;;;36.80;100367.00;;;;12714765;23;20615;-82
2022/08/16 12:05:47;;;;;;;5.13;4.63;;;;;37.00;100364.00;;;;12712431;23;20218;-82
2022/08/16 12:10:55;;;;;;;4.40;4.00;;;;;36.50;100373.00;;;;12715984;23;20171;-82
2022/08/16 12:16:06;;;;;;;6.57;3.95;;;;;36.60;100367.00;;;;12714267;23;20160;-82
2022/08/16 12:21:10;;;;;;;6.88;4.25;;;;;36.30;100374.00;;;;12713702;23;20494;-82
2022/08/16 12:26:12;;;;;;;6.22;4.30;;;;;36.50;100369.00;;;;12689343;23;20518;-81
2022/08/16 12:31:14;;;;;;;9.32;4.72;;;;;36.30;100361.00;;;;12697044;23;20180;-81
2022/08/16 12:36:17;;;;;;;7.57;4.60;;;;;36.20;100362.00;;;;12714201;23;20172;-81
2022/08/16 12:41:20;;;;;;;4.82;4.38;;;;;36.00;100356.00;;;;12714136;23;20176;-81
2022/08/16 12:46:26;;;;;;;10.55;4.95;;;;;35.90;100362.00;;;;12690340;23;20252;-82
2022/08/16 12:51:33;;;;;;;7.40;3.95;;;;;36.30;100355.00;;;;12688112;23;20172;-81
2022/08/16 12:56:56;;;;;;;5.55;4.40;;;;;36.40;100359.00;;;;12716541;23;20171;-81
2022/08/16 13:01:59;;;;;;;6.80;4.07;;;;;36.80;100356.00;;;;12713504;23;20176;-81
2022/08/16 13:07:03;;;;;;;9.35;3.95;;;;;37.10;100354.00;;;;12692811;23;20266;-81
2022/08/16 13:12:19;;;;;;;9.70;4.25;;;;;37.40;100352.00;;;;12691974;23;20247;-82
2022/08/16 13:17:24;;;;;;;5.53;4.60;;;;;37.20;100346.00;;;;12693753;23;20184;-81
2022/08/16 13:22:30;;;;;;;5.45;3.97;;;;;37.10;100343.00;;;;12670092;23;20167;-81
2022/08/16 13:27:33;;;;;;;4.90;4.20;;;;;37.40;100349.00;;;;12764341;23;20179;-82
2022/08/16 13:32:55;;;;;;;8.55;4.60;;;;;36.70;100349.00;;;;12717791;23;20222;-81
2022/08/16 13:37:58;;;;;;;7.35;4.35;;;;;36.00;100343.00;;;;12712754;23;20168;-82
2022/08/16 13:43:01;;;;;;;10.50;4.32;;;;;35.60;100344.00;;;;12692464;23;20176;-80
2022/08/16 13:48:06;;;;;;;7.70;4.13;;;;;35.80;100341.00;;;;12692276;23;20217;-81
2022/08/16 13:53:09;;;;;;;7.72;4.45;;;;;36.10;100350.00;;;;12714793;23;20172;-81
2022/08/16 13:58:11;;;;;;;5.85;4.40;;;;;35.00;100352.00;;;;12713859;23;20602;-82
2022/08/16 14:03:33;;;;;;;4.95;4.30;;;;;34.60;100338.00;;;;12669389;23;20184;-82
2022/08/16 14:08:39;;;;;;;7.15;4.28;;;;;34.60;100337.00;;;;12689573;23;20168;-81
2022/08/16 14:13:43;;;;;;;7.13;4.43;;;;;34.70;100337.00;;;;12713412;23;20163;-82
2022/08/16 14:18:46;;;;;;;4.38;3.83;;;;;34.40;100334.00;;;;12688868;23;20172;-81
2022/08/16 14:23:49;;;;;;;7.07;4.63;;;;;33.70;100325.00;;;;12732968;23;20171;-81
2022/08/16 14:28:52;;;;;;;4.75;4.25;;;;;33.50;100331.00;;;;12758797;23;20160;-82
2022/08/16 14:33:55;;;;;;;5.22;4.28;;;;;33.40;100337.00;;;;12687950;23;20160;-81
2022/08/16 14:38:59;;;;;;;6.30;4.20;;;;;33.30;100331.00;;;;12686490;23;20264;-81
2022/08/16 14:44:01;;;;;;;5.63;4.10;;;;;32.90;100332.00;;;;12733087;23;20267;-81
2022/08/16 14:49:03;;;;;;;4.57;4.18;;;;;32.30;100335.00;;;;12712559;23;20221;-81
2022/08/16 14:54:10;;;;;;;6.28;4.10;;;;;31.90;100336.00;;;;12689672;23;20726;-81
2022/08/16 14:59:12;;;;;;;4.10;3.65;;;;;31.60;100330.00;;;;12713447;23;20618;-80
2022/08/16 15:04:14;;;;;;;6.88;4.63;;;;;33.30;100326.00;;;;12714216;23;20302;-81
2022/08/16 15:09:36;;;;;;;10.10;4.20;;;;;33.10;100324.00;;;;12689333;23;20258;-78
2022/08/16 15:14:58;;;;;;;8.32;4.40;;;;;32.90;100325.00;;;;12704352;23;20172;-79
2022/08/16 15:20:06;;;;;;;9.30;4.13;;;;;32.80;100334.00;;;;12677421;23;20490;-79
2022/08/16 15:25:20;;;;;;;10.07;3.88;;;;;32.50;100324.00;;;;12743927;23;20172;-78
2022/08/16 15:30:25;;;;;;;10.63;4.30;;;;;32.40;100337.00;;;;12675412;23;20172;-79
2022/08/16 15:35:49;;;;;;;7.00;4.28;;;;;32.20;100335.00;;;;12702249;23;20178;-77
2022/08/16 15:40:51;;;;;;;4.75;4.35;;;;;32.30;100342.00;;;;12649311;23;20183;-77
2022/08/16 15:51:42;;;;;;;5.72;5.13;;;;;31.90;100321.00;;;;12699881;23;20594;-77
2022/08/16 15:56:50;;;;;;;5.00;4.35;;;;;31.60;100326.00;;;;12670042;23;20658;-77
2022/08/16 16:01:55;;;;;;;7.82;4.60;;;;;31.70;100324.00;;;;12738155;23;20237;-77
2022/08/16 16:07:02;;;;;;;9.45;5.00;;;;;31.80;100324.00;;;;12688194;23;20227;-77
2022/08/16 16:12:06;;;;;;;5.20;4.20;;;;;31.70;100337.00;;;;12640159;23;20635;-77
2022/08/16 16:17:28;;;;;;;8.30;4.35;;;;;31.30;100323.00;;;;12650836;23;20160;-78
2022/08/16 16:22:30;;;;;;;7.13;4.60;;;;;31.00;100324.00;;;;12646843;23;20257;-77
2022/08/16 16:27:33;;;;;;;5.00;4.53;;;;;30.90;100326.00;;;;12668667;23;20668;-77
2022/08/16 16:32:36;;;;;;;4.70;4.10;;;;;30.70;100331.00;;;;12736744;23;20160;-77
2022/08/16 16:37:41;;;;;;;7.88;3.92;;;;;30.50;100330.00;;;;12646943;23;20612;-76
2022/08/16 16:42:48;;;;;;;7.45;4.03;;;;;30.30;100312.00;;;;12644736;23;20171;-77
2022/08/16 16:47:51;;;;;;;4.90;4.30;;;;;30.20;100307.00;;;;12692914;23;20268;-77
2022/08/16 16:52:55;;;;;;;7.07;4.13;;;;;30.10;100303.00;;;;12670091;23;20183;-76
2022/08/16 17:03:37;;;;;;;6.47;3.78;;;;;29.60;100302.00;;;;12702742;23;20237;-76
2022/08/16 17:08:41;;;;;;;5.10;3.72;;;;;29.30;100291.00;;;;12665581;23;20194;-76
2022/08/16 17:13:47;;;;;;;7.55;4.57;;;;;29.10;100297.00;;;;12704448;23;20202;-76
2022/08/16 17:18:52;;;;;;;4.15;3.78;;;;;28.80;100291.00;;;;12694825;23;20175;-76
2022/08/16 17:24:14;;;;;;;5.05;4.00;;;;;28.70;100301.00;;;;12790477;22;20597;-77
2022/08/16 17:29:20;;;;;;;7.57;4.38;;;;;28.60;100302.00;;;;12692221;23;20254;-76
2022/08/16 17:34:31;;;;;;;4.75;4.13;;;;;28.60;100296.00;;;;12691785;23;20196;-76
2022/08/16 17:39:46;;;;;;;7.35;3.83;;;;;28.40;100298.00;;;;12669435;23;20171;-76
2022/08/16 17:45:05;;;;;;;6.70;3.83;;;;;28.30;100303.00;;;;12670413;23;20180;-76
2022/08/16 17:50:07;;;;;;;6.38;3.92;;;;;28.30;100311.00;;;;12687733;23;20184;-76
2022/08/16 17:55:27;;;;;;;7.43;3.60;;;;;28.20;100308.00;;;;12690186;23;20202;-75
2022/08/16 18:00:30;;;;;;;5.90;4.13;;;;;28.10;100312.00;;;;12739766;23;20187;-76
2022/08/16 18:05:36;;;;;;;4.85;3.95;;;;;27.80;100318.00;;;;12714626;23;20266;-76
2022/08/16 18:10:38;;;;;;;8.38;4.28;;;;;27.50;100313.00;;;;12689580;23;20239;-76
2022/08/16 18:15:43;;;;;;;5.35;3.45;;;;;27.30;100321.00;;;;12669394;23;20164;-76
2022/08/16 18:26:13;;;;;;;6.75;3.58;;;;;26.70;100331.00;;;;12693829;23;20237;-77
2022/08/16 18:31:15;;;;;;;9.88;4.63;;;;;26.50;100334.00;;;;12682410;23;20698;-77
2022/08/16 18:36:17;;;;;;;4.28;3.90;;;;;26.20;100342.00;;;;12693524;23;20168;-77
2022/08/16 18:41:24;;;;;;;5.82;4.13;;;;;26.00;100343.00;;;;12692738;23;20196;-77
2022/08/16 18:46:26;;;;;;;5.45;4.40;;;;;25.70;100345.00;;;;12667798;23;20204;-77
2022/08/16 18:51:28;;;;;;;4.85;4.07;;;;;25.50;100349.00;;;;12688796;23;20179;-77
2022/08/16 18:56:30;;;;;;;7.55;4.55;;;;;25.30;100361.00;;;;12713928;23;20362;-78
2022/08/16 19:01:52;;;;;;;4.30;3.85;;;;;25.00;100366.00;;;;12693176;23;20172;-77
2022/08/16 19:07:00;;;;;;;4.95;3.88;;;;;24.80;100373.00;;;;12738646;23;20187;-77
2022/08/16 19:12:04;;;;;;;6.05;4.07;;;;;24.50;100392.00;;;;12665742;23;20291;-77
2022/08/16 19:17:09;;;;;;;8.70;4.30;;;;;24.30;100398.00;;;;12710701;23;20852;-77
2022/08/16 19:22:12;;;;;;;5.80;4.60;;;;;24.10;100401.00;;;;12736302;23;20163;-77
2022/08/16 19:27:14;;;;;;;5.15;3.85;;;;;24.00;100405.00;;;;12670257;23;20208;-77
2022/08/16 19:32:26;;;;;;;13.15;4.85;;;;;23.80;100413.00;;;;12669398;23;20160;-76
2022/08/16 19:37:28;;;;;;;6.80;3.95;;;;;23.60;100405.00;;;;12716209;23;20163;-77
2022/08/16 19:42:30;;;;;;;7.13;4.13;;;;;23.50;100407.00;;;;12694632;23;20208;-77
2022/08/16 19:47:38;;;;;;;7.03;4.53;;;;;23.30;100417.00;;;;12668222;23;20257;-77
2022/08/16 19:52:40;;;;;;;9.45;5.10;;;;;23.20;100417.00;;;;12669104;23;20627;-77
2022/08/16 19:57:45;;;;;;;5.60;4.75;;;;;23.10;100413.00;;;;12669229;23;20607;-77
2022/08/16 20:02:51;;;;;;;5.47;4.68;;;;;23.00;100416.00;;;;12692547;23;20207;-77
2022/08/16 20:07:54;;;;;;;8.57;4.95;;;;;22.90;100413.00;;;;12693606;23;20278;-77
2022/08/16 20:13:01;;;;;;;8.77;4.47;;;;;22.80;100415.00;;;;12669358;23;20225;-76
2022/08/16 20:18:04;;;;;;;8.02;4.85;;;;;22.60;100417.00;;;;12692089;23;20240;-77
2022/08/16 20:23:26;;;;;;;9.30;5.20;;;;;22.50;100424.00;;;;12716061;23;20622;-77
2022/08/16 20:28:28;;;;;;;7.03;5.10;;;;;22.50;100427.00;;;;12692312;23;20210;-77
2022/08/16 20:33:51;;;;;;;9.48;5.28;;;;;22.40;100425.00;;;;12718341;23;20172;-77
2022/08/16 20:38:56;;;;;;;8.05;5.57;;;;;22.30;100427.00;;;;12714094;23;20239;-77
2022/08/16 20:43:58;;;;;;;10.65;5.88;;;;;22.10;100423.00;;;;12691622;23;20543;-77
2022/08/16 20:49:00;;;;;;;7.05;5.32;;;;;22.00;100430.00;;;;12668211;23;20205;-77
2022/08/16 20:54:03;;;;;;;7.57;5.05;;;;;21.90;100428.00;;;;12667673;23;20171;-77
2022/08/16 20:59:05;;;;;;;7.63;5.13;;;;;21.80;100426.00;;;;12668533;23;20200;-77
2022/08/16 21:04:07;;;;;;;10.00;5.65;;;;;21.80;100424.00;;;;12688690;23;20175;-77
2022/08/16 21:09:09;;;;;;;9.00;5.47;;;;;21.80;100428.00;;;;12692593;23;20248;-77
2022/08/16 21:14:11;;;;;;;8.10;5.65;;;;;21.80;100434.00;;;;12692289;23;20159;-77
2022/08/16 21:19:13;;;;;;;8.82;6.05;;;;;21.70;100430.00;;;;12691967;23;20163;-77
2022/08/16 21:24:15;;;;;;;6.07;5.40;;;;;21.70;100423.00;;;;12692371;23;20168;-77
2022/08/16 21:29:17;;;;;;;9.63;5.38;;;;;21.60;100423.00;;;;12693981;23;20580;-77
2022/08/16 21:34:20;;;;;;;6.75;5.43;;;;;21.60;100432.00;;;;12693861;23;20191;-77
2022/08/16 21:39:22;;;;;;;9.57;5.82;;;;;21.60;100430.00;;;;12694598;23;20172;-77
2022/08/16 21:44:24;;;;;;;11.15;6.43;;;;;21.60;100436.00;;;;12694688;23;20163;-77
2022/08/16 21:49:39;;;;;;;11.30;5.95;;;;;21.60;100448.00;;;;12715286;23;20175;-77
2022/08/16 21:54:42;;;;;;;8.48;5.80;;;;;21.60;100453.00;;;;12716110;23;20156;-77
2022/08/16 21:59:43;;;;;;;8.05;5.72;;;;;21.70;100454.00;;;;12693937;23;20198;-77
2022/08/16 22:04:46;;;;;;;10.18;6.03;;;;;21.60;100443.00;;;;12670404;23;20183;-77
2022/08/16 22:09:49;;;;;;;13.85;5.97;;;;;21.60;100448.00;;;;12735110;23;20202;-77
2022/08/16 22:14:51;;;;;;;8.68;5.30;;;;;21.50;100444.00;;;;12714677;23;20176;-78
2022/08/16 22:19:53;;;;;;;7.35;6.35;;;;;21.50;100445.00;;;;12689596;23;20525;-77
2022/08/16 22:24:55;;;;;;;11.32;6.22;;;;;21.60;100435.00;;;;12737429;23;20187;-77
2022/08/16 22:29:57;;;;;;;8.77;6.13;;;;;21.60;100444.00;;;;12668531;23;20179;-77
2022/08/16 22:35:00;;;;;;;9.55;5.75;;;;;21.50;100445.00;;;;12671806;23;20171;-77
2022/08/16 22:40:16;;;;;;;9.40;6.20;;;;;21.50;100435.00;;;;12697294;23;20197;-77
2022/08/16 22:45:19;;;;;;;8.75;5.43;;;;;21.40;100445.00;;;;12740999;23;20182;-77
2022/08/16 22:50:21;;;;;;;11.50;6.22;;;;;21.30;100439.00;;;;12742028;23;20199;-77
2022/08/16 22:55:24;;;;;;;11.25;6.28;;;;;21.30;100442.00;;;;12696804;23;20168;-77
2022/08/16 23:00:31;;;;;;;8.05;6.57;;;;;21.30;100444.00;;;;12696407;23;20199;-77
2022/08/16 23:05:36;;;;;;;10.25;5.85;;;;;21.20;100447.00;;;;12695974;23;20270;-77
2022/08/16 23:10:38;;;;;;;7.57;6.03;;;;;21.20;100455.00;;;;12672659;23;20251;-77
2022/08/16 23:15:46;;;;;;;11.10;6.20;;;;;21.20;100452.00;;;;12673098;23;20634;-77
2022/08/16 23:20:54;;;;;;;7.25;6.47;;;;;21.20;100456.00;;;;12699382;23;20168;-77
2022/08/16 23:25:57;;;;;;;9.52;6.28;;;;;21.20;100458.00;;;;12673758;23;20646;-77
2022/08/16 23:30:59;;;;;;;11.02;6.32;;;;;21.20;100450.00;;;;12697710;23;20176;-77
2022/08/16 23:36:03;;;;;;;7.88;6.78;;;;;21.20;100434.00;;;;12693368;23;20179;-77
2022/08/16 23:41:08;;;;;;;11.70;6.55;;;;;21.30;100431.00;;;;12740830;23;20229;-77
2022/08/16 23:46:15;;;;;;;7.90;6.63;;;;;21.20;100419.00;;;;12696795;23;20204;-77
2022/08/16 23:51:18;;;;;;;8.77;6.60;;;;;21.10;100413.00;;;;12696221;23;20190;-77
2022/08/16 23:56:21;;;;;;;8.70;7.68;;;;;21.10;100423.00;;;;12697064;23;20160;-77
